GRZ553 Details

Departure: (PACV)
Arrival: Ted Stevens Anchorage International Airport (PANC)
Route: JOH


Current Weather Information
PACV 250353Z 20004KT 10SM SCT032 SCT060 16/12 A2980 RMK AO2 SLP093 T01560117
PANC 250353Z 24005KT 10SM FEW060 SCT200 18/07 A2975 RMK AO2 SLP075 T01830072